CDT,Max TemperatureF,Mean TemperatureF,Min TemperatureF,Max Dew PointF,MeanDew PointF,Min DewpointF,Max Humidity, Mean Humidity, Min Humidity, Max Sea Level PressureIn, Mean Sea Level PressureIn, Min Sea Level PressureIn, Max VisibilityMiles, Mean VisibilityMiles, Min VisibilityMiles, Max Wind SpeedMPH, Mean Wind SpeedMPH, Max Gust SpeedMPH,PrecipitationIn, CloudCover, Events, WindDirDegrees
2013-10-1,86,72,57,61,56,51,80,60,40,29.89,29.84,29.78,,,,17,8,26,0.00,,,134
2013-10-2,84,73,62,67,65,60,100,79,58,29.90,29.84,29.77,,,,22,11,31,0.00,,,151
2013-10-3,89,79,69,67,65,62,90,66,41,29.77,29.69,29.60,,,,26,14,34,0.00,,,167
2013-10-4,90,71,52,64,54,29,73,50,26,30.01,29.72,29.63,,,,29,17,39,0.00,,,209
2013-10-5,66,56,45,31,28,22,53,37,20,30.15,30.07,30.02,,,,26,14,38,0.00,,,320
2013-10-6,73,58,43,34,26,21,60,38,15,30.11,30.06,30.01,,,,26,12,34,0.00,,,323
2013-10-7,76,57,37,39,33,27,85,51,17,30.20,30.12,30.06,,,,13,6,17,0.00,,,167
2013-10-8,79,65,50,47,41,39,66,47,27,30.05,29.98,29.89,,,,22,12,30,0.00,,,155
2013-10-9,81,66,50,51,48,43,89,58,26,29.99,29.93,29.89,,,,25,11,32,0.00,,,150
2013-10-10,83,71,58,57,53,51,80,60,40,29.95,29.85,29.72,,,,26,13,34,0.00,,,155
2013-10-11,80,68,56,59,44,28,90,53,16,29.89,29.75,29.69,,,,21,10,26,0.00,,,208
2013-10-12,74,60,46,43,37,32,77,50,23,30.23,30.10,29.90,,,,16,9,22,0.00,,,36
2013-10-13,72,58,43,56,44,35,84,62,39,30.31,30.23,30.15,,,,18,7,24,0.02,,,99
2013-10-14,66,59,52,65,59,52,100,86,72,30.13,29.94,29.78,,,,25,10,36,0.34,,,141
2013-10-15,61,51,40,47,37,35,85,62,39,30.19,30.10,29.95,,,,23,13,30,0.00,,,347
2013-10-16,54,44,34,40,36,32,92,69,46,30.21,30.14,30.06,,,,13,5,17,0.00,,,305
2013-10-17,69,52,35,42,35,25,100,60,20,30.07,30.03,29.97,,,,22,6,28,0.00,,,345
2013-10-18,47,40,32,37,34,31,100,83,65,30.23,30.14,30.02,,,,22,9,29,0.43,,,27
2013-10-19,68,49,29,39,33,27,100,65,29,30.21,30.07,29.94,,,,17,5,24,0.00,,,280
2013-10-20,71,54,37,44,38,33,79,55,31,29.97,29.88,29.79,,,,13,6,16,0.00,,,171
2013-10-21,64,52,39,42,36,30,85,58,30,30.19,30.09,29.97,,,,15,7,21,0.00,,,347
2013-10-22,74,57,40,41,38,34,89,58,27,30.09,30.05,30.01,,,,20,6,28,0.00,,,333
2013-10-23,69,54,38,45,41,37,86,62,37,30.16,30.10,30.01,,,,17,6,21,0.00,,,134
2013-10-24,57,48,38,41,35,30,92,67,41,30.43,30.33,30.14,,,,17,9,23,0.00,,,52
2013-10-25,58,46,33,43,33,27,82,57,32,30.46,30.33,30.14,,,,21,9,26,0.00,,,147
2013-10-26,64,50,36,50,42,28,89,58,27,30.21,30.15,30.08,,,,18,7,24,0.12,,,50
2013-10-27,68,49,29,35,30,24,92,56,19,30.20,30.06,29.92,,,,18,6,22,0.00,,,161
2013-10-28,62,52,42,60,52,33,100,78,56,30.03,29.97,29.92,,,,18,10,27,0.00,,,143
2013-10-29,66,60,54,65,59,52,100,92,84,29.95,29.92,29.89,,,,16,6,24,0.55,,,234
2013-10-30,68,58,48,62,54,48,100,91,81,29.93,29.81,29.73,,,,18,8,25,0.06,,,8
2013-10-31,65,54,43,48,42,32,100,65,30,29.79,29.70,29.60,,,,24,11,32,0.31,,,334